Report METAR

 

LIBQ - Scuro Mountain, Italy
Distance from station: SE 95km
Dati ricevuti: 07/07/2022 08:55
Sereno
Sereno
 Vento da Variabile
Vento: Variabile 6 km/h
Temperatura: 22°C
P.to Rugiada: 10°C
Umidità: 47%
Barometro: 1025 hPa
Summary: Sereno
Visibility: superiore a 10 km
2022/07/07 06:55 LIBQ 070655Z VRB03KT CAVOK 22/10 Q1025
LIRI - Pontecagnano (af, Italy
Distance from station: NO 96km
Dati ricevuti: 07/07/2022 08:57
Sereno
Sereno
 Vento da Variabile
Vento: Variabile 4 km/h
Temperatura: 29°C
Indice di Calore: 31°C
P.to Rugiada: 20°C
Umidità: 58%
Barometro: 1015 hPa
Summary: Sereno
Visibility: superiore a 10 km
2022/07/07 06:57 LIRI 070657Z VRB02KT CAVOK 29/20 Q1015
 
LIBH - Marina Di Ginosa, Italy
Distance from station: ENE 108km
Dati ricevuti: 07/07/2022 08:55
Sereno
Sereno
 Vento da NNO
Vento: NNO 13 km/h
Temperatura: 30°C
Indice di Calore: 32°C
P.to Rugiada: 20°C
Umidità: 55%
Barometro: 1012 hPa
Summary: Sereno
Visibility: superiore a 10 km
2022/07/07 06:55 LIBH 070655Z 33007KT CAVOK 30/20 Q1012 RMK SKC QUK 0 QUL 0 VIS MAR 15 KM VIS MIN 9999
LIRT - Trevico, Italy
Distance from station: NNO 122km
Dati ricevuti: 07/07/2022 08:55
Sereno
Sereno
 Vento da ESE
Vento: ESE 6 km/h
Temperatura: 24°C
P.to Rugiada: 11°C
Umidità: 44%
Barometro: 1020 hPa
Summary: Sereno
Visibility: superiore a 10 km
2022/07/07 06:55 LIRT 070655Z 11003KT CAVOK 24/11 Q1020
 
LICA - Lamezia Terme, Italy
Distance from station: SSE 132km
Dati ricevuti: 07/07/2022 09:20
Sereno
Sereno
 Vento da OSO
Vento: OSO 11 km/h
Temperatura: 29°C
Indice di Calore: 32°C
P.to Rugiada: 22°C
Umidità: 66%
Barometro: 1015 hPa
Nuvole: Sereno
Visibility: 10 km
2022/07/07 07:20 LICA 070720Z AUTO 24006KT 180V270 9999 NCD 29/22 Q1015
LIBV - Gioia Del Colle, Italy
Distance from station: NE 133km
Dati ricevuti: 07/07/2022 08:55
Sereno
Sereno
 Vento da N
Vento: N 15 km/h
Temperatura: 26°C
P.to Rugiada: 20°C
Umidità: 70%
Barometro: 1015 hPa
Summary: Sereno
Visibility: superiore a 10 km
2022/07/07 06:55 LIBV 070655Z 35008KT CAVOK 26/20 Q1015
 
LIQC - Capri Island, Italy
Distance from station: ONO 142km
Dati ricevuti: 07/07/2022 08:55
Sereno
Sereno
 Vento da calmo
Vento: Calma
Temperatura: 27°C
Indice di Calore: 29°C
P.to Rugiada: 22°C
Umidità: 74%
Barometro: 1016 hPa
Summary: Sereno
Visibility: superiore a 10 km
2022/07/07 06:55 LIQC 070655Z 00000KT CAVOK 27/22 Q1016 RMK SKC QUK 1 QUL 0 VIS MAR 20 KM VIS MIN 9999